sensor_id;sensor_type;location;lat;lon;timestamp;P1;durP1;ratioP1;P2;durP2;ratioP2
25107;SDS011;13090;53.422;7.670;2023-02-15T00:03:36;40.63;;;15.17;;
25107;SDS011;13090;53.422;7.670;2023-02-15T00:08:40;110.88;;;19.58;;
25107;SDS011;13090;53.422;7.670;2023-02-15T00:13:43;115.95;;;19.10;;
25107;SDS011;13090;53.422;7.670;2023-02-15T00:18:47;147.25;;;22.02;;
25107;SDS011;13090;53.422;7.670;2023-02-15T00:23:53;206.88;;;21.90;;
25107;SDS011;13090;53.422;7.670;2023-02-15T00:28:56;114.45;;;16.27;;
25107;SDS011;13090;53.422;7.670;2023-02-15T00:34:03;211.68;;;18.98;;
25107;SDS011;13090;53.422;7.670;2023-02-15T00:39:13;74.50;;;13.90;;
25107;SDS011;13090;53.422;7.670;2023-02-15T00:44:17;77.88;;;15.85;;
25107;SDS011;13090;53.422;7.670;2023-02-15T00:49:24;113.93;;;16.77;;
25107;SDS011;13090;53.422;7.670;2023-02-15T00:54:36;39.47;;;15.35;;
25107;SDS011;13090;53.422;7.670;2023-02-15T00:59:39;35.53;;;16.55;;
25107;SDS011;13090;53.422;7.670;2023-02-15T01:04:43;50.63;;;18.75;;
25107;SDS011;13090;53.422;7.670;2023-02-15T01:09:46;83.15;;;17.65;;
25107;SDS011;13090;53.422;7.670;2023-02-15T01:14:53;128.45;;;19.17;;
25107;SDS011;13090;53.422;7.670;2023-02-15T01:19:57;115.22;;;20.10;;
25107;SDS011;13090;53.422;7.670;2023-02-15T01:25:00;148.77;;;16.67;;
25107;SDS011;13090;53.422;7.670;2023-02-15T01:30:03;113.03;;;15.13;;
25107;SDS011;13090;53.422;7.670;2023-02-15T01:35:08;88.47;;;16.50;;
25107;SDS011;13090;53.422;7.670;2023-02-15T01:40:16;111.03;;;17.35;;
25107;SDS011;13090;53.422;7.670;2023-02-15T01:45:27;39.83;;;11.57;;
25107;SDS011;13090;53.422;7.670;2023-02-15T01:50:33;40.95;;;12.88;;
25107;SDS011;13090;53.422;7.670;2023-02-15T01:55:42;42.67;;;14.40;;
25107;SDS011;13090;53.422;7.670;2023-02-15T02:00:48;39.60;;;12.00;;
25107;SDS011;13090;53.422;7.670;2023-02-15T02:05:56;24.35;;;12.82;;
25107;SDS011;13090;53.422;7.670;2023-02-15T02:10:59;20.88;;;12.75;;
25107;SDS011;13090;53.422;7.670;2023-02-15T02:16:03;20.25;;;12.82;;
25107;SDS011;13090;53.422;7.670;2023-02-15T02:21:21;50.70;;;12.48;;
25107;SDS011;13090;53.422;7.670;2023-02-15T02:38:18;43.17;;;11.02;;
25107;SDS011;13090;53.422;7.670;2023-02-15T02:43:29;48.80;;;11.35;;
25107;SDS011;13090;53.422;7.670;2023-02-15T02:48:38;43.20;;;10.68;;
25107;SDS011;13090;53.422;7.670;2023-02-15T02:53:43;46.45;;;10.90;;
25107;SDS011;13090;53.422;7.670;2023-02-15T02:58:46;44.20;;;10.13;;
25107;SDS011;13090;53.422;7.670;2023-02-15T03:03:53;18.17;;;10.50;;
25107;SDS011;13090;53.422;7.670;2023-02-15T03:09:03;18.17;;;9.13;;
25107;SDS011;13090;53.422;7.670;2023-02-15T03:14:13;40.03;;;11.20;;
25107;SDS011;13090;53.422;7.670;2023-02-15T03:19:21;50.42;;;10.23;;
25107;SDS011;13090;53.422;7.670;2023-02-15T03:24:29;41.97;;;10.80;;
25107;SDS011;13090;53.422;7.670;2023-02-15T03:29:36;41.50;;;9.85;;
25107;SDS011;13090;53.422;7.670;2023-02-15T03:34:40;46.72;;;11.32;;
25107;SDS011;13090;53.422;7.670;2023-02-15T03:39:48;27.42;;;9.45;;
25107;SDS011;13090;53.422;7.670;2023-02-15T03:44:58;38.65;;;15.82;;
25107;SDS011;13090;53.422;7.670;2023-02-15T03:50:07;17.13;;;9.93;;
25107;SDS011;13090;53.422;7.670;2023-02-15T03:55:23;20.50;;;8.88;;
25107;SDS011;13090;53.422;7.670;2023-02-15T04:00:26;19.70;;;9.27;;
25107;SDS011;13090;53.422;7.670;2023-02-15T04:05:29;20.17;;;8.85;;
25107;SDS011;13090;53.422;7.670;2023-02-15T04:10:33;23.65;;;9.10;;
25107;SDS011;13090;53.422;7.670;2023-02-15T04:15:38;26.42;;;9.00;;
25107;SDS011;13090;53.422;7.670;2023-02-15T04:20:43;14.80;;;8.20;;
25107;SDS011;13090;53.422;7.670;2023-02-15T04:25:47;14.55;;;8.55;;
25107;SDS011;13090;53.422;7.670;2023-02-15T04:30:50;29.77;;;8.75;;
25107;SDS011;13090;53.422;7.670;2023-02-15T04:35:55;45.40;;;8.95;;
25107;SDS011;13090;53.422;7.670;2023-02-15T04:41:00;23.80;;;9.20;;
25107;SDS011;13090;53.422;7.670;2023-02-15T04:46:02;26.67;;;9.02;;
25107;SDS011;13090;53.422;7.670;2023-02-15T04:51:06;16.10;;;9.15;;
25107;SDS011;13090;53.422;7.670;2023-02-15T04:56:18;26.80;;;8.98;;
25107;SDS011;13090;53.422;7.670;2023-02-15T05:01:22;22.48;;;8.25;;
25107;SDS011;13090;53.422;7.670;2023-02-15T05:06:25;20.70;;;8.45;;
25107;SDS011;13090;53.422;7.670;2023-02-15T05:11:32;44.60;;;8.60;;
25107;SDS011;13090;53.422;7.670;2023-02-15T05:16:36;26.08;;;9.43;;
25107;SDS011;13090;53.422;7.670;2023-02-15T05:21:41;40.40;;;9.68;;
25107;SDS011;13090;53.422;7.670;2023-02-15T05:26:46;22.85;;;8.68;;
25107;SDS011;13090;53.422;7.670;2023-02-15T05:31:49;31.88;;;9.05;;
25107;SDS011;13090;53.422;7.670;2023-02-15T05:36:52;19.90;;;9.25;;
25107;SDS011;13090;53.422;7.670;2023-02-15T05:41:59;40.17;;;10.73;;
25107;SDS011;13090;53.422;7.670;2023-02-15T05:47:02;24.70;;;10.07;;
25107;SDS011;13090;53.422;7.670;2023-02-15T05:52:06;38.30;;;17.77;;
25107;SDS011;13090;53.422;7.670;2023-02-15T05:57:11;48.30;;;10.00;;
25107;SDS011;13090;53.422;7.670;2023-02-15T06:02:14;21.63;;;8.93;;
25107;SDS011;13090;53.422;7.670;2023-02-15T06:07:17;33.70;;;21.42;;
25107;SDS011;13090;53.422;7.670;2023-02-15T06:12:21;24.55;;;14.00;;
25107;SDS011;13090;53.422;7.670;2023-02-15T06:17:24;18.25;;;10.40;;
25107;SDS011;13090;53.422;7.670;2023-02-15T06:22:28;15.48;;;10.40;;
25107;SDS011;13090;53.422;7.670;2023-02-15T06:27:34;16.00;;;10.50;;
25107;SDS011;13090;53.422;7.670;2023-02-15T06:32:37;25.77;;;11.75;;
25107;SDS011;13090;53.422;7.670;2023-02-15T06:37:40;32.60;;;10.60;;
25107;SDS011;13090;53.422;7.670;2023-02-15T06:42:44;24.00;;;11.30;;
25107;SDS011;13090;53.422;7.670;2023-02-15T06:47:47;24.88;;;11.85;;
25107;SDS011;13090;53.422;7.670;2023-02-15T06:52:55;29.08;;;11.82;;
25107;SDS011;13090;53.422;7.670;2023-02-15T06:58:00;20.50;;;13.40;;
25107;SDS011;13090;53.422;7.670;2023-02-15T07:03:03;23.40;;;12.52;;
25107;SDS011;13090;53.422;7.670;2023-02-15T07:08:08;29.02;;;12.93;;
25107;SDS011;13090;53.422;7.670;2023-02-15T07:13:13;24.30;;;15.25;;
25107;SDS011;13090;53.422;7.670;2023-02-15T07:18:18;21.65;;;12.40;;
25107;SDS011;13090;53.422;7.670;2023-02-15T07:23:21;26.88;;;16.52;;
25107;SDS011;13090;53.422;7.670;2023-02-15T07:28:31;27.00;;;13.77;;
25107;SDS011;13090;53.422;7.670;2023-02-15T07:33:34;19.52;;;11.95;;
25107;SDS011;13090;53.422;7.670;2023-02-15T07:38:38;28.85;;;18.83;;
25107;SDS011;13090;53.422;7.670;2023-02-15T07:43:44;22.95;;;15.30;;
25107;SDS011;13090;53.422;7.670;2023-02-15T07:48:49;19.30;;;13.52;;
25107;SDS011;13090;53.422;7.670;2023-02-15T07:53:52;16.75;;;11.73;;
25107;SDS011;13090;53.422;7.670;2023-02-15T07:58:57;13.65;;;10.65;;
25107;SDS011;13090;53.422;7.670;2023-02-15T08:03:59;12.68;;;9.75;;
25107;SDS011;13090;53.422;7.670;2023-02-15T08:09:03;14.75;;;9.93;;
25107;SDS011;13090;53.422;7.670;2023-02-15T08:19:16;13.38;;;10.70;;
25107;SDS011;13090;53.422;7.670;2023-02-15T08:24:21;19.13;;;12.25;;
25107;SDS011;13090;53.422;7.670;2023-02-15T08:29:27;16.45;;;11.65;;
25107;SDS011;13090;53.422;7.670;2023-02-15T08:34:31;14.52;;;11.95;;
25107;SDS011;13090;53.422;7.670;2023-02-15T08:39:38;15.10;;;11.48;;
25107;SDS011;13090;53.422;7.670;2023-02-15T08:44:47;19.00;;;12.88;;
25107;SDS011;13090;53.422;7.670;2023-02-15T08:49:51;18.25;;;13.80;;
25107;SDS011;13090;53.422;7.670;2023-02-15T08:54:53;18.42;;;14.35;;
25107;SDS011;13090;53.422;7.670;2023-02-15T09:00:08;20.65;;;14.85;;
25107;SDS011;13090;53.422;7.670;2023-02-15T09:05:13;24.15;;;15.02;;
25107;SDS011;13090;53.422;7.670;2023-02-15T09:10:16;24.23;;;14.23;;
25107;SDS011;13090;53.422;7.670;2023-02-15T09:15:23;18.08;;;13.32;;
25107;SDS011;13090;53.422;7.670;2023-02-15T09:20:25;18.60;;;13.53;;
25107;SDS011;13090;53.422;7.670;2023-02-15T09:25:31;16.85;;;13.10;;
25107;SDS011;13090;53.422;7.670;2023-02-15T09:30:40;17.15;;;12.98;;
25107;SDS011;13090;53.422;7.670;2023-02-15T09:35:44;16.63;;;13.17;;
25107;SDS011;13090;53.422;7.670;2023-02-15T09:40:49;20.02;;;14.10;;
25107;SDS011;13090;53.422;7.670;2023-02-15T09:51:57;19.08;;;13.98;;
25107;SDS011;13090;53.422;7.670;2023-02-15T09:57:25;19.57;;;14.53;;
25107;SDS011;13090;53.422;7.670;2023-02-15T10:08:30;21.83;;;15.23;;
25107;SDS011;13090;53.422;7.670;2023-02-15T10:13:44;21.48;;;14.40;;
25107;SDS011;13090;53.422;7.670;2023-02-15T10:19:03;20.10;;;13.75;;
25107;SDS011;13090;53.422;7.670;2023-02-15T10:24:20;23.33;;;15.37;;
25107;SDS011;13090;53.422;7.670;2023-02-15T10:29:43;20.73;;;15.10;;
25107;SDS011;13090;53.422;7.670;2023-02-15T10:34:57;23.77;;;15.50;;
25107;SDS011;13090;53.422;7.670;2023-02-15T10:40:15;23.02;;;14.70;;
25107;SDS011;13090;53.422;7.670;2023-02-15T10:45:29;21.90;;;15.00;;
25107;SDS011;13090;53.422;7.670;2023-02-15T10:50:43;21.33;;;14.68;;
25107;SDS011;13090;53.422;7.670;2023-02-15T10:56:00;25.15;;;16.63;;
25107;SDS011;13090;53.422;7.670;2023-02-15T11:01:13;22.95;;;14.65;;
25107;SDS011;13090;53.422;7.670;2023-02-15T11:06:22;25.73;;;17.05;;
25107;SDS011;13090;53.422;7.670;2023-02-15T11:11:28;25.17;;;16.63;;
25107;SDS011;13090;53.422;7.670;2023-02-15T11:16:40;25.80;;;16.40;;
25107;SDS011;13090;53.422;7.670;2023-02-15T11:21:48;30.42;;;18.67;;
25107;SDS011;13090;53.422;7.670;2023-02-15T11:26:57;27.98;;;17.15;;
25107;SDS011;13090;53.422;7.670;2023-02-15T11:32:13;27.83;;;17.42;;
25107;SDS011;13090;53.422;7.670;2023-02-15T11:37:30;24.38;;;16.90;;
25107;SDS011;13090;53.422;7.670;2023-02-15T11:42:37;28.38;;;18.58;;
25107;SDS011;13090;53.422;7.670;2023-02-15T11:47:43;27.65;;;19.20;;
25107;SDS011;13090;53.422;7.670;2023-02-15T11:52:48;27.50;;;18.67;;
25107;SDS011;13090;53.422;7.670;2023-02-15T11:57:53;29.00;;;19.10;;
25107;SDS011;13090;53.422;7.670;2023-02-15T12:03:02;27.98;;;18.30;;
25107;SDS011;13090;53.422;7.670;2023-02-15T12:08:15;27.08;;;17.42;;
25107;SDS011;13090;53.422;7.670;2023-02-15T12:13:20;31.88;;;20.10;;
25107;SDS011;13090;53.422;7.670;2023-02-15T12:18:33;27.40;;;18.17;;
25107;SDS011;13090;53.422;7.670;2023-02-15T12:23:46;29.33;;;18.10;;
25107;SDS011;13090;53.422;7.670;2023-02-15T12:28:52;28.55;;;18.65;;
25107;SDS011;13090;53.422;7.670;2023-02-15T12:34:08;31.02;;;18.05;;
25107;SDS011;13090;53.422;7.670;2023-02-15T12:39:20;28.90;;;19.10;;
25107;SDS011;13090;53.422;7.670;2023-02-15T12:44:25;30.73;;;19.63;;
25107;SDS011;13090;53.422;7.670;2023-02-15T12:49:34;35.78;;;18.77;;
25107;SDS011;13090;53.422;7.670;2023-02-15T12:54:45;30.33;;;18.77;;
25107;SDS011;13090;53.422;7.670;2023-02-15T12:59:50;26.70;;;17.15;;
25107;SDS011;13090;53.422;7.670;2023-02-15T13:04:53;27.77;;;18.00;;
25107;SDS011;13090;53.422;7.670;2023-02-15T13:09:59;27.67;;;17.70;;
25107;SDS011;13090;53.422;7.670;2023-02-15T13:15:02;28.90;;;18.33;;
25107;SDS011;13090;53.422;7.670;2023-02-15T13:20:06;34.28;;;18.38;;
25107;SDS011;13090;53.422;7.670;2023-02-15T13:25:23;31.00;;;19.07;;
25107;SDS011;13090;53.422;7.670;2023-02-15T13:30:30;29.00;;;18.52;;
25107;SDS011;13090;53.422;7.670;2023-02-15T13:35:37;28.95;;;18.17;;
25107;SDS011;13090;53.422;7.670;2023-02-15T13:40:51;27.42;;;17.58;;
25107;SDS011;13090;53.422;7.670;2023-02-15T13:46:02;31.15;;;18.30;;
25107;SDS011;13090;53.422;7.670;2023-02-15T13:51:14;31.60;;;18.38;;
25107;SDS011;13090;53.422;7.670;2023-02-15T13:56:35;31.20;;;18.45;;
25107;SDS011;13090;53.422;7.670;2023-02-15T14:01:51;34.17;;;18.95;;
25107;SDS011;13090;53.422;7.670;2023-02-15T14:07:03;28.95;;;16.48;;
25107;SDS011;13090;53.422;7.670;2023-02-15T14:12:29;30.35;;;18.35;;
25107;SDS011;13090;53.422;7.670;2023-02-15T14:17:48;32.05;;;18.23;;
25107;SDS011;13090;53.422;7.670;2023-02-15T14:23:01;33.05;;;19.13;;
25107;SDS011;13090;53.422;7.670;2023-02-15T14:28:16;33.33;;;18.25;;
25107;SDS011;13090;53.422;7.670;2023-02-15T14:33:39;30.50;;;18.80;;
25107;SDS011;13090;53.422;7.670;2023-02-15T14:38:48;39.08;;;22.85;;
25107;SDS011;13090;53.422;7.670;2023-02-15T14:44:10;32.70;;;17.73;;
25107;SDS011;13090;53.422;7.670;2023-02-15T14:49:24;34.80;;;18.67;;
25107;SDS011;13090;53.422;7.670;2023-02-15T14:59:54;41.67;;;22.58;;
25107;SDS011;13090;53.422;7.670;2023-02-15T15:05:00;36.90;;;21.10;;
25107;SDS011;13090;53.422;7.670;2023-02-15T15:15:45;34.80;;;19.65;;
25107;SDS011;13090;53.422;7.670;2023-02-15T15:20:50;32.63;;;19.92;;
25107;SDS011;13090;53.422;7.670;2023-02-15T15:26:01;32.50;;;19.50;;
25107;SDS011;13090;53.422;7.670;2023-02-15T15:36:45;31.63;;;18.00;;
25107;SDS011;13090;53.422;7.670;2023-02-15T15:42:20;32.08;;;18.30;;
25107;SDS011;13090;53.422;7.670;2023-02-15T15:47:41;34.85;;;19.35;;
25107;SDS011;13090;53.422;7.670;2023-02-15T15:53:10;36.90;;;21.63;;
25107;SDS011;13090;53.422;7.670;2023-02-15T15:58:21;32.45;;;18.40;;
25107;SDS011;13090;53.422;7.670;2023-02-15T16:03:27;36.58;;;21.77;;
25107;SDS011;13090;53.422;7.670;2023-02-15T16:08:32;37.08;;;20.20;;
25107;SDS011;13090;53.422;7.670;2023-02-15T16:13:42;35.28;;;20.75;;
25107;SDS011;13090;53.422;7.670;2023-02-15T16:18:47;37.35;;;21.55;;
25107;SDS011;13090;53.422;7.670;2023-02-15T16:23:57;39.10;;;23.02;;
25107;SDS011;13090;53.422;7.670;2023-02-15T16:34:51;37.65;;;21.63;;
25107;SDS011;13090;53.422;7.670;2023-02-15T16:39:54;41.22;;;23.45;;
25107;SDS011;13090;53.422;7.670;2023-02-15T16:45:00;39.70;;;23.08;;
25107;SDS011;13090;53.422;7.670;2023-02-15T16:50:16;41.28;;;24.25;;
25107;SDS011;13090;53.422;7.670;2023-02-15T16:55:21;65.25;;;33.53;;
25107;SDS011;13090;53.422;7.670;2023-02-15T17:00:25;75.55;;;39.05;;
25107;SDS011;13090;53.422;7.670;2023-02-15T17:05:31;41.15;;;23.88;;
25107;SDS011;13090;53.422;7.670;2023-02-15T17:10:35;38.45;;;21.27;;
25107;SDS011;13090;53.422;7.670;2023-02-15T17:15:40;40.85;;;22.35;;
25107;SDS011;13090;53.422;7.670;2023-02-15T17:20:45;36.38;;;21.70;;
25107;SDS011;13090;53.422;7.670;2023-02-15T17:25:49;38.63;;;23.58;;
25107;SDS011;13090;53.422;7.670;2023-02-15T17:30:52;44.88;;;26.38;;
25107;SDS011;13090;53.422;7.670;2023-02-15T17:36:05;40.20;;;22.88;;
25107;SDS011;13090;53.422;7.670;2023-02-15T17:41:10;45.97;;;25.85;;
25107;SDS011;13090;53.422;7.670;2023-02-15T17:46:12;46.67;;;25.90;;
25107;SDS011;13090;53.422;7.670;2023-02-15T17:51:17;40.92;;;24.02;;
25107;SDS011;13090;53.422;7.670;2023-02-15T17:56:20;45.80;;;24.95;;
25107;SDS011;13090;53.422;7.670;2023-02-15T18:01:23;45.13;;;24.35;;
25107;SDS011;13090;53.422;7.670;2023-02-15T18:06:27;46.13;;;23.83;;
25107;SDS011;13090;53.422;7.670;2023-02-15T18:11:29;37.53;;;21.83;;
25107;SDS011;13090;53.422;7.670;2023-02-15T18:16:33;36.00;;;21.80;;
25107;SDS011;13090;53.422;7.670;2023-02-15T18:21:39;40.58;;;21.38;;
25107;SDS011;13090;53.422;7.670;2023-02-15T18:26:41;39.22;;;21.42;;
25107;SDS011;13090;53.422;7.670;2023-02-15T18:31:44;38.60;;;22.23;;
25107;SDS011;13090;53.422;7.670;2023-02-15T18:36:56;41.17;;;22.45;;
25107;SDS011;13090;53.422;7.670;2023-02-15T18:41:59;38.47;;;21.30;;
25107;SDS011;13090;53.422;7.670;2023-02-15T18:47:02;41.00;;;22.08;;
25107;SDS011;13090;53.422;7.670;2023-02-15T18:52:09;40.97;;;20.67;;
25107;SDS011;13090;53.422;7.670;2023-02-15T18:57:16;36.33;;;20.98;;
25107;SDS011;13090;53.422;7.670;2023-02-15T19:02:18;40.40;;;21.83;;
25107;SDS011;13090;53.422;7.670;2023-02-15T19:07:23;39.13;;;22.65;;
25107;SDS011;13090;53.422;7.670;2023-02-15T19:12:27;39.50;;;22.05;;
25107;SDS011;13090;53.422;7.670;2023-02-15T19:17:29;44.10;;;24.17;;
25107;SDS011;13090;53.422;7.670;2023-02-15T19:22:34;37.22;;;21.20;;
25107;SDS011;13090;53.422;7.670;2023-02-15T19:27:37;42.38;;;22.58;;
25107;SDS011;13090;53.422;7.670;2023-02-15T19:32:39;41.50;;;22.85;;
25107;SDS011;13090;53.422;7.670;2023-02-15T19:37:44;42.00;;;22.88;;
25107;SDS011;13090;53.422;7.670;2023-02-15T19:42:49;45.78;;;23.30;;
25107;SDS011;13090;53.422;7.670;2023-02-15T19:47:53;45.83;;;23.83;;
25107;SDS011;13090;53.422;7.670;2023-02-15T19:52:57;41.00;;;22.23;;
25107;SDS011;13090;53.422;7.670;2023-02-15T19:58:00;44.65;;;23.05;;
25107;SDS011;13090;53.422;7.670;2023-02-15T20:03:04;44.80;;;22.58;;
25107;SDS011;13090;53.422;7.670;2023-02-15T20:08:13;41.60;;;23.33;;
25107;SDS011;13090;53.422;7.670;2023-02-15T20:13:17;44.22;;;22.63;;
25107;SDS011;13090;53.422;7.670;2023-02-15T20:18:20;40.47;;;22.17;;
25107;SDS011;13090;53.422;7.670;2023-02-15T20:23:25;39.28;;;21.95;;
25107;SDS011;13090;53.422;7.670;2023-02-15T20:28:31;42.13;;;22.20;;
25107;SDS011;13090;53.422;7.670;2023-02-15T20:33:34;38.10;;;21.30;;
25107;SDS011;13090;53.422;7.670;2023-02-15T20:38:37;37.65;;;20.27;;
25107;SDS011;13090;53.422;7.670;2023-02-15T20:43:40;43.30;;;22.45;;
25107;SDS011;13090;53.422;7.670;2023-02-15T20:48:42;45.88;;;22.90;;
25107;SDS011;13090;53.422;7.670;2023-02-15T20:53:46;41.17;;;23.17;;
25107;SDS011;13090;53.422;7.670;2023-02-15T20:58:49;45.65;;;22.73;;
25107;SDS011;13090;53.422;7.670;2023-02-15T21:03:52;43.90;;;23.17;;
25107;SDS011;13090;53.422;7.670;2023-02-15T21:08:56;46.50;;;23.92;;
25107;SDS011;13090;53.422;7.670;2023-02-15T21:13:59;46.08;;;24.00;;
25107;SDS011;13090;53.422;7.670;2023-02-15T21:19:01;45.72;;;24.80;;
25107;SDS011;13090;53.422;7.670;2023-02-15T21:24:12;48.33;;;24.63;;
25107;SDS011;13090;53.422;7.670;2023-02-15T21:29:16;43.13;;;23.05;;
25107;SDS011;13090;53.422;7.670;2023-02-15T21:34:19;46.88;;;24.08;;
25107;SDS011;13090;53.422;7.670;2023-02-15T21:39:23;41.38;;;22.35;;
25107;SDS011;13090;53.422;7.670;2023-02-15T21:44:27;49.33;;;24.40;;
25107;SDS011;13090;53.422;7.670;2023-02-15T21:49:30;46.85;;;24.67;;
25107;SDS011;13090;53.422;7.670;2023-02-15T21:54:33;44.97;;;25.05;;
25107;SDS011;13090;53.422;7.670;2023-02-15T21:59:36;48.60;;;25.55;;
25107;SDS011;13090;53.422;7.670;2023-02-15T22:04:38;47.45;;;25.80;;
25107;SDS011;13090;53.422;7.670;2023-02-15T22:09:45;50.70;;;26.92;;
25107;SDS011;13090;53.422;7.670;2023-02-15T22:14:48;48.33;;;26.92;;
25107;SDS011;13090;53.422;7.670;2023-02-15T22:19:53;50.67;;;24.90;;
25107;SDS011;13090;53.422;7.670;2023-02-15T22:24:58;47.97;;;24.95;;
25107;SDS011;13090;53.422;7.670;2023-02-15T22:30:00;49.58;;;24.92;;
25107;SDS011;13090;53.422;7.670;2023-02-15T22:35:05;46.88;;;25.98;;
25107;SDS011;13090;53.422;7.670;2023-02-15T22:40:14;42.05;;;24.08;;
25107;SDS011;13090;53.422;7.670;2023-02-15T22:45:19;52.75;;;27.08;;
25107;SDS011;13090;53.422;7.670;2023-02-15T22:50:23;50.28;;;27.25;;
25107;SDS011;13090;53.422;7.670;2023-02-15T22:55:30;54.63;;;26.73;;
25107;SDS011;13090;53.422;7.670;2023-02-15T23:00:37;47.63;;;26.08;;
25107;SDS011;13090;53.422;7.670;2023-02-15T23:05:40;45.95;;;25.58;;
25107;SDS011;13090;53.422;7.670;2023-02-15T23:10:44;50.28;;;27.90;;
25107;SDS011;13090;53.422;7.670;2023-02-15T23:20:55;43.70;;;24.95;;
25107;SDS011;13090;53.422;7.670;2023-02-15T23:26:01;49.40;;;27.20;;
25107;SDS011;13090;53.422;7.670;2023-02-15T23:31:09;51.55;;;28.67;;
25107;SDS011;13090;53.422;7.670;2023-02-15T23:36:23;55.38;;;28.27;;
25107;SDS011;13090;53.422;7.670;2023-02-15T23:41:30;49.75;;;26.25;;
25107;SDS011;13090;53.422;7.670;2023-02-15T23:46:34;54.05;;;26.83;;
25107;SDS011;13090;53.422;7.670;2023-02-15T23:56:46;53.50;;;27.60;;
